createdAt,value
2023-02-13T00:00:32.497Z,4.60
2023-02-13T00:02:59.569Z,1.77
2023-02-13T00:05:26.560Z,2.00
2023-02-13T00:07:53.508Z,3.22
2023-02-13T00:10:20.671Z,3.17
2023-02-13T00:12:47.720Z,3.00
2023-02-13T00:15:14.676Z,3.33
2023-02-13T00:17:41.649Z,5.78
2023-02-13T00:20:10.646Z,3.83
2023-02-13T00:22:38.247Z,1.63
2023-02-13T00:25:06.437Z,5.38
2023-02-13T00:27:33.837Z,2.22
2023-02-13T00:30:00.835Z,1.70
2023-02-13T00:32:27.750Z,3.08
2023-02-13T00:34:56.624Z,2.55
2023-02-13T00:37:23.868Z,2.38
2023-02-13T00:39:52.840Z,4.03
2023-02-13T00:42:24.089Z,3.00
2023-02-13T00:44:51.294Z,3.30
2023-02-13T00:47:18.731Z,2.33
2023-02-13T00:49:45.944Z,3.35
2023-02-13T00:52:13.217Z,4.28
2023-02-13T00:54:40.134Z,3.08
2023-02-13T00:57:07.056Z,4.28
2023-02-13T00:59:35.150Z,4.25
2023-02-13T01:02:02.148Z,3.85
2023-02-13T01:04:29.151Z,2.90
2023-02-13T01:06:57.497Z,3.75
2023-02-13T01:09:25.523Z,3.13
2023-02-13T01:11:52.787Z,2.85
2023-02-13T01:14:20.143Z,3.92
2023-02-13T01:16:49.268Z,2.00
2023-02-13T01:19:16.197Z,2.38
2023-02-13T01:21:44.402Z,6.53
2023-02-13T01:24:11.712Z,2.70
2023-02-13T01:26:38.763Z,2.17
2023-02-13T01:29:05.976Z,2.78
2023-02-13T01:31:33.117Z,4.53
2023-02-13T01:34:00.441Z,3.60
2023-02-13T01:36:27.710Z,3.13
2023-02-13T01:38:57.602Z,2.25
2023-02-13T01:41:25.932Z,2.28
2023-02-13T01:43:59.161Z,3.65
2023-02-13T01:46:36.026Z,3.50
2023-02-13T01:49:25.814Z,2.08
2023-02-13T01:51:56.588Z,3.10
2023-02-13T01:54:33.227Z,4.53
2023-02-13T01:57:15.113Z,3.10
2023-02-13T01:59:49.792Z,2.97
2023-02-13T02:02:18.527Z,2.80
2023-02-13T02:04:48.368Z,3.03
2023-02-13T02:07:22.918Z,4.32
2023-02-13T02:09:54.425Z,2.05
2023-02-13T02:12:29.098Z,2.70
2023-02-13T02:14:58.072Z,4.82
2023-02-13T02:17:26.787Z,2.90
2023-02-13T02:20:15.471Z,2.00
2023-02-13T02:22:51.609Z,1.38
2023-02-13T02:25:46.503Z,2.22
2023-02-13T02:28:52.650Z,3.25
2023-02-13T02:31:37.864Z,4.03
2023-02-13T02:34:10.556Z,4.50
2023-02-13T02:36:53.437Z,3.22
2023-02-13T02:39:43.480Z,2.88
2023-02-13T02:42:23.845Z,3.63
2023-02-13T02:44:53.869Z,3.30
2023-02-13T02:48:11.149Z,3.85
2023-02-13T02:50:43.884Z,3.35
2023-02-13T02:53:31.821Z,3.47
2023-02-13T02:56:06.285Z,3.05
2023-02-13T02:59:00.862Z,1.55
2023-02-13T03:01:51.278Z,5.22
2023-02-13T03:04:49.525Z,6.82
2023-02-13T03:07:18.762Z,3.20
2023-02-13T03:10:13.937Z,3.70
2023-02-13T03:13:17.682Z,6.05
2023-02-13T03:16:04.855Z,3.40
2023-02-13T03:18:54.953Z,4.20
2023-02-13T03:21:53.981Z,5.72
2023-02-13T03:24:27.412Z,4.78
2023-02-13T03:27:54.479Z,3.17
2023-02-13T03:30:37.162Z,1.10
2023-02-13T03:33:19.412Z,1.52
2023-02-13T03:36:25.743Z,3.42
2023-02-13T03:39:09.967Z,1.90
2023-02-13T03:41:48.918Z,2.58
2023-02-13T03:44:23.762Z,3.88
2023-02-13T03:46:53.646Z,3.97
2023-02-13T03:49:44.957Z,3.55
2023-02-13T03:52:51.184Z,0.82
2023-02-13T03:55:44.429Z,2.55
2023-02-13T03:58:32.546Z,2.67
2023-02-13T04:01:05.139Z,3.03
2023-02-13T04:03:53.264Z,3.00
2023-02-13T04:06:51.965Z,2.45
2023-02-13T04:09:19.310Z,3.83
2023-02-13T04:11:46.219Z,2.15
2023-02-13T04:14:24.104Z,2.28
2023-02-13T04:16:58.232Z,7.85
2023-02-13T04:19:26.906Z,4.07
2023-02-13T04:21:59.085Z,5.18
2023-02-13T04:24:27.353Z,2.88
2023-02-13T04:26:55.067Z,3.33
2023-02-13T04:29:23.557Z,3.03
2023-02-13T04:31:51.023Z,1.95
2023-02-13T04:34:18.092Z,3.70
2023-02-13T04:36:45.083Z,3.83
2023-02-13T04:39:12.423Z,4.50
2023-02-13T04:41:39.325Z,5.13
2023-02-13T04:44:06.336Z,2.38
2023-02-13T04:46:33.374Z,1.85
2023-02-13T04:49:00.429Z,2.45
2023-02-13T04:51:27.672Z,5.93
2023-02-13T04:53:54.811Z,4.35
2023-02-13T04:56:21.789Z,2.28
2023-02-13T04:58:48.801Z,4.22
2023-02-13T05:01:17.295Z,4.65
2023-02-13T05:03:44.354Z,2.45
2023-02-13T05:06:11.329Z,3.53
2023-02-13T05:08:38.726Z,4.25
2023-02-13T05:11:06.329Z,2.30
2023-02-13T05:13:34.111Z,2.38
2023-02-13T05:16:01.091Z,5.43
2023-02-13T05:18:28.003Z,4.05
2023-02-13T05:21:14.028Z,4.38
2023-02-13T05:23:41.042Z,4.13
2023-02-13T05:26:07.933Z,3.35
2023-02-13T05:28:53.336Z,6.47
2023-02-13T05:31:20.251Z,7.38
2023-02-13T05:33:47.263Z,2.70
2023-02-13T05:36:14.198Z,2.35
2023-02-13T05:38:41.452Z,4.18
2023-02-13T05:41:08.492Z,4.80
2023-02-13T05:43:35.429Z,2.70
2023-02-13T05:46:07.015Z,3.53
2023-02-13T05:48:34.487Z,5.75
2023-02-13T05:51:01.557Z,2.17
2023-02-13T05:53:29.945Z,5.93
2023-02-13T05:55:57.117Z,3.40
2023-02-13T05:58:24.189Z,5.10
2023-02-13T06:00:51.107Z,4.93
2023-02-13T06:03:17.955Z,3.60
2023-02-13T06:05:44.926Z,4.35
2023-02-13T06:08:11.824Z,2.72
2023-02-13T06:10:38.811Z,5.65
2023-02-13T06:13:05.688Z,7.68
2023-02-13T06:15:32.545Z,4.05
2023-02-13T06:17:59.904Z,3.17
2023-02-13T06:20:27.265Z,5.13
2023-02-13T06:22:54.198Z,4.18
2023-02-13T06:25:21.660Z,2.70
2023-02-13T06:27:48.589Z,4.07
2023-02-13T06:30:16.779Z,6.90
2023-02-13T06:32:44.335Z,3.83
2023-02-13T06:35:11.288Z,4.03
2023-02-13T06:37:39.346Z,6.47
2023-02-13T06:40:07.927Z,8.05
2023-02-13T06:42:34.879Z,4.03
2023-02-13T06:45:01.748Z,3.03
2023-02-13T06:47:28.623Z,3.58
2023-02-13T06:49:55.519Z,6.00
2023-02-13T06:52:22.469Z,4.57
2023-02-13T06:54:49.421Z,4.65
2023-02-13T06:57:16.669Z,3.38
2023-02-13T06:59:43.900Z,5.68
2023-02-13T07:02:14.180Z,4.72
2023-02-13T07:04:41.504Z,4.22
2023-02-13T07:07:08.512Z,4.75
2023-02-13T07:09:35.695Z,5.68
2023-02-13T07:12:04.762Z,4.38
2023-02-13T07:14:31.735Z,4.50
2023-02-13T07:16:58.864Z,5.72
2023-02-13T07:19:25.843Z,6.07
2023-02-13T07:21:52.758Z,5.80
2023-02-13T07:24:19.668Z,4.00
2023-02-13T07:26:46.579Z,5.25
2023-02-13T07:29:13.583Z,4.65
2023-02-13T07:31:40.554Z,5.03
2023-02-13T07:34:08.011Z,5.68
2023-02-13T07:36:35.234Z,3.70
2023-02-13T07:39:02.298Z,5.72
2023-02-13T07:41:29.399Z,5.05
2023-02-13T07:43:56.380Z,1.98
2023-02-13T07:46:23.498Z,5.40
2023-02-13T07:48:52.523Z,8.02
2023-02-13T07:51:19.475Z,6.68
2023-02-13T07:53:46.758Z,6.75
2023-02-13T07:56:13.728Z,4.60
2023-02-13T07:58:41.205Z,7.30
2023-02-13T08:01:10.317Z,6.05
2023-02-13T08:03:37.593Z,11.35
2023-02-13T08:06:05.751Z,4.85
2023-02-13T08:08:32.716Z,4.30
2023-02-13T08:11:27.136Z,3.42
2023-02-13T08:13:54.011Z,6.72
2023-02-13T08:16:21.019Z,2.28
2023-02-13T08:18:47.915Z,3.28
2023-02-13T08:21:15.485Z,9.10
2023-02-13T08:23:42.437Z,4.40
2023-02-13T08:26:11.272Z,4.97
2023-02-13T08:28:38.567Z,3.03
2023-02-13T08:31:13.056Z,2.35
2023-02-13T08:33:41.601Z,2.80
2023-02-13T08:36:08.996Z,3.20
2023-02-13T08:38:35.951Z,5.82
2023-02-13T08:41:02.846Z,3.60
2023-02-13T08:43:29.759Z,2.35
2023-02-13T08:46:01.101Z,2.35
2023-02-13T08:48:29.739Z,5.40
2023-02-13T08:50:56.806Z,3.25
2023-02-13T08:53:23.824Z,3.40
2023-02-13T08:55:55.220Z,2.35
2023-02-13T08:58:22.650Z,2.85
2023-02-13T09:00:50.239Z,7.68
2023-02-13T09:03:17.229Z,3.67
2023-02-13T09:05:44.180Z,2.20
2023-02-13T09:08:14.020Z,3.97
2023-02-13T09:10:43.904Z,3.30
2023-02-13T09:13:11.147Z,5.30
2023-02-13T09:15:41.686Z,5.22
2023-02-13T09:18:08.626Z,4.43
2023-02-13T09:20:36.254Z,2.55
2023-02-13T09:23:03.613Z,5.18
2023-02-13T09:25:30.524Z,5.95
2023-02-13T09:27:57.464Z,4.63
2023-02-13T09:30:24.648Z,3.80
2023-02-13T09:32:55.309Z,7.18
2023-02-13T09:35:23.699Z,4.00
2023-02-13T09:37:50.567Z,4.85
2023-02-13T09:40:43.223Z,4.55
2023-02-13T09:43:30.603Z,4.70
2023-02-13T10:17:37.023Z,11.43
2023-02-13T10:20:08.789Z,14.60
2023-02-13T10:22:41.550Z,16.50
2023-02-13T10:25:40.637Z,10.77
2023-02-13T10:28:15.688Z,12.45
2023-02-13T10:31:05.454Z,13.80
2023-02-13T10:33:36.376Z,11.18
2023-02-13T10:36:24.457Z,13.80
2023-02-13T10:39:00.329Z,12.02
2023-02-13T10:41:48.791Z,12.38
2023-02-13T10:44:56.033Z,14.43
2023-02-13T10:47:25.829Z,12.87
2023-02-13T10:50:11.662Z,14.55
2023-02-13T10:53:00.325Z,10.98
2023-02-13T10:55:46.039Z,11.63
2023-02-13T10:58:19.257Z,13.00
2023-02-13T11:01:07.098Z,11.27
2023-02-13T11:03:34.044Z,13.23
2023-02-13T11:06:07.835Z,12.93
2023-02-13T11:08:44.655Z,10.60
2023-02-13T11:11:36.272Z,12.23
2023-02-13T11:14:14.105Z,10.80
2023-02-13T11:16:48.852Z,12.45
2023-02-13T11:19:22.533Z,10.23
2023-02-13T11:21:54.695Z,18.17
2023-02-13T11:24:27.386Z,7.60
2023-02-13T11:27:05.982Z,11.43
2023-02-13T11:29:34.888Z,12.30
2023-02-13T11:32:29.719Z,8.35
2023-02-13T11:34:57.275Z,16.60
2023-02-13T11:37:29.821Z,7.50
2023-02-13T11:39:59.989Z,7.68
2023-02-13T11:42:36.434Z,9.35
2023-02-13T11:45:23.093Z,8.73
2023-02-13T11:47:50.503Z,14.70
2023-02-13T11:50:23.242Z,8.68
2023-02-13T11:53:04.499Z,8.50
2023-02-13T11:55:39.463Z,8.60
2023-02-13T11:58:12.111Z,8.40
2023-02-13T12:00:41.538Z,9.25
2023-02-13T12:03:29.030Z,10.48
2023-02-13T12:06:16.219Z,8.32
2023-02-13T12:08:47.037Z,10.35
2023-02-13T12:11:44.117Z,10.85
2023-02-13T12:14:18.684Z,10.65
2023-02-13T12:16:55.302Z,10.23
2023-02-13T12:22:28.093Z,8.25
2023-02-13T12:25:04.983Z,14.20
2023-02-13T12:27:42.837Z,10.02
2023-02-13T12:30:12.911Z,11.57
2023-02-13T12:33:16.583Z,12.73
2023-02-13T12:36:01.791Z,12.93
2023-02-13T12:38:48.750Z,13.10
2023-02-13T12:44:23.813Z,10.73
2023-02-13T12:47:15.079Z,14.95
2023-02-13T12:49:59.048Z,15.43
2023-02-13T12:52:45.145Z,16.55
2023-02-13T12:55:18.154Z,11.45
2023-02-13T12:57:57.029Z,11.35
2023-02-13T13:00:45.885Z,16.48
2023-02-13T13:03:51.521Z,9.55
2023-02-13T13:06:33.232Z,10.52
2023-02-13T13:09:10.819Z,14.50
2023-02-13T13:12:02.375Z,13.73
2023-02-13T13:14:38.829Z,10.95
2023-02-13T13:17:09.370Z,12.38
2023-02-13T13:19:52.709Z,16.85
2023-02-13T13:22:30.692Z,11.07
2023-02-13T13:25:03.463Z,12.90
2023-02-13T13:27:38.295Z,10.65
2023-02-13T13:30:14.784Z,12.40
2023-02-13T13:32:44.254Z,18.75
2023-02-13T13:35:20.041Z,13.18
2023-02-13T13:38:25.546Z,15.40
2023-02-13T13:41:07.212Z,11.30
2023-02-13T13:43:57.843Z,8.38
2023-02-13T13:46:43.796Z,10.32
2023-02-13T13:49:16.690Z,10.73
2023-02-13T13:51:43.754Z,15.73
2023-02-13T13:54:10.559Z,17.42
2023-02-13T13:57:02.298Z,12.80
2023-02-13T13:59:38.304Z,10.32
2023-02-13T14:02:17.600Z,12.23
2023-02-13T14:05:10.622Z,16.08
2023-02-13T14:07:43.858Z,15.77
2023-02-13T14:10:26.323Z,12.63
2023-02-13T14:12:56.808Z,15.30
2023-02-13T14:15:39.061Z,12.48
2023-02-13T14:18:14.955Z,18.63
2023-02-13T14:20:43.107Z,13.50
2023-02-13T14:23:34.290Z,14.65
2023-02-13T14:26:16.578Z,16.98
2023-02-13T14:28:49.239Z,13.40
2023-02-13T14:31:22.489Z,16.23
2023-02-13T14:34:02.894Z,12.98
2023-02-13T14:36:42.379Z,17.10
2023-02-13T14:39:42.355Z,14.25
2023-02-13T14:42:30.032Z,19.05
2023-02-13T14:45:00.743Z,13.32
2023-02-13T14:47:57.829Z,14.80
2023-02-13T14:50:30.548Z,18.63
2023-02-13T14:53:03.518Z,18.88
2023-02-13T14:55:46.726Z,18.38
2023-02-13T14:58:25.228Z,14.60
2023-02-13T15:01:06.147Z,14.18
2023-02-13T15:03:49.916Z,23.25
2023-02-13T15:06:27.877Z,13.73
2023-02-13T15:08:58.175Z,17.50
2023-02-13T15:11:36.201Z,24.13
2023-02-13T15:14:25.782Z,17.92
2023-02-13T15:16:57.865Z,13.85
2023-02-13T15:19:26.161Z,16.08
2023-02-13T15:21:57.166Z,14.85
2023-02-13T15:24:25.247Z,11.88
2023-02-13T15:27:04.230Z,11.77
2023-02-13T15:29:47.575Z,13.88
2023-02-13T15:32:29.400Z,23.40
2023-02-13T15:34:56.597Z,22.77
2023-02-13T15:37:27.641Z,20.45
2023-02-13T15:39:54.797Z,13.48
2023-02-13T15:42:22.035Z,10.90
2023-02-13T15:44:53.275Z,11.18
2023-02-13T15:47:30.746Z,9.45
2023-02-13T15:49:57.882Z,16.17
2023-02-13T15:52:34.437Z,15.27
2023-02-13T15:57:28.925Z,9.25
2023-02-13T15:59:57.771Z,11.60
2023-02-13T16:02:34.098Z,10.18
2023-02-13T16:05:02.282Z,16.05
2023-02-13T16:07:30.780Z,12.93
2023-02-13T16:10:33.056Z,17.50
2023-02-13T16:13:16.892Z,12.98
2023-02-13T16:15:44.131Z,13.10
2023-02-13T16:18:20.094Z,12.55
2023-02-13T16:20:53.382Z,13.18
2023-02-13T16:23:21.222Z,11.63
2023-02-13T16:25:48.964Z,14.68
2023-02-13T16:28:25.773Z,13.10
2023-02-13T16:30:59.539Z,10.10
2023-02-13T16:33:43.546Z,13.23
2023-02-13T16:36:10.487Z,13.88
2023-02-13T16:38:41.472Z,10.25
2023-02-13T16:41:22.100Z,14.43
2023-02-13T16:43:53.087Z,11.35
2023-02-13T16:46:24.934Z,15.70
2023-02-13T16:48:58.311Z,18.13
2023-02-13T16:51:39.174Z,13.60
2023-02-13T16:54:15.736Z,14.65
2023-02-13T16:56:51.669Z,12.45
2023-02-13T16:59:21.483Z,19.50
2023-02-13T17:01:49.074Z,16.38
2023-02-13T17:04:25.693Z,12.73
2023-02-13T17:06:56.204Z,11.48
2023-02-13T17:09:24.124Z,27.17
2023-02-13T17:11:53.428Z,19.75
2023-02-13T17:14:20.608Z,29.75
2023-02-13T17:16:48.838Z,23.25
2023-02-13T17:19:15.834Z,27.15
2023-02-13T17:21:42.795Z,27.65
2023-02-13T17:24:16.796Z,21.60
2023-02-13T17:26:44.080Z,23.85
2023-02-13T17:29:10.967Z,18.63
2023-02-13T17:31:38.061Z,15.18
2023-02-13T17:34:05.920Z,17.95
2023-02-13T17:36:32.829Z,18.73
2023-02-13T17:38:59.767Z,18.48
2023-02-13T17:41:26.727Z,22.48
2023-02-13T17:43:53.620Z,16.95
2023-02-13T17:46:20.716Z,18.52
2023-02-13T17:48:47.581Z,13.13
2023-02-13T17:51:14.973Z,18.65
2023-02-13T17:53:41.959Z,15.63
2023-02-13T17:56:08.871Z,16.55
2023-02-13T17:58:35.772Z,15.60
2023-02-13T18:01:03.487Z,15.13
2023-02-13T18:03:30.627Z,16.00
2023-02-13T18:05:57.579Z,19.45
2023-02-13T18:08:24.817Z,19.08
2023-02-13T18:10:51.700Z,13.02
2023-02-13T18:13:18.702Z,19.58
2023-02-13T18:15:45.800Z,25.60
2023-02-13T18:18:16.166Z,15.30
2023-02-13T18:20:44.409Z,18.17
2023-02-13T18:23:11.370Z,16.48
2023-02-13T18:25:38.314Z,27.63
2023-02-13T18:28:05.344Z,17.33
2023-02-13T18:30:32.313Z,25.48
2023-02-13T18:32:59.466Z,27.05
2023-02-13T18:35:27.020Z,37.13
2023-02-13T18:37:54.309Z,43.22
2023-02-13T18:40:21.596Z,35.53
2023-02-13T18:42:51.092Z,33.30
2023-02-13T18:45:18.317Z,34.25
2023-02-13T18:47:45.461Z,42.28
2023-02-13T18:50:12.411Z,47.47
2023-02-13T18:52:39.478Z,43.47
2023-02-13T18:55:07.401Z,39.70
2023-02-13T18:57:34.755Z,37.22
2023-02-13T19:00:01.804Z,44.90
2023-02-13T19:02:28.797Z,42.58
2023-02-13T19:04:55.697Z,41.92
2023-02-13T19:07:22.926Z,38.42
2023-02-13T19:09:50.024Z,38.10
2023-02-13T19:12:17.307Z,29.08
2023-02-13T19:14:44.365Z,35.95
2023-02-13T19:17:11.419Z,46.88
2023-02-13T19:19:38.417Z,36.17
2023-02-13T19:22:05.320Z,35.58
2023-02-13T19:24:32.540Z,39.10
2023-02-13T19:27:00.580Z,34.22
2023-02-13T19:29:27.603Z,36.05
2023-02-13T19:31:54.925Z,36.50
2023-02-13T19:34:22.143Z,33.38
2023-02-13T19:36:49.096Z,38.00
2023-02-13T19:39:16.185Z,36.28
2023-02-13T19:41:44.310Z,44.40
2023-02-13T19:44:11.512Z,39.15
2023-02-13T19:46:38.815Z,38.70
2023-02-13T19:49:06.814Z,42.53
2023-02-13T19:51:35.061Z,36.95
2023-02-13T19:54:07.197Z,44.08
2023-02-13T19:56:37.161Z,25.83
2023-02-13T19:59:05.525Z,28.27
2023-02-13T20:01:32.802Z,39.80
2023-02-13T20:03:59.813Z,37.67
2023-02-13T20:06:32.677Z,37.70
2023-02-13T20:09:01.970Z,36.38
2023-02-13T20:11:29.667Z,37.45
2023-02-13T20:14:00.852Z,32.88
2023-02-13T20:16:33.309Z,36.58
2023-02-13T20:19:03.690Z,41.60
2023-02-13T20:21:30.744Z,44.15
2023-02-13T20:23:57.849Z,43.55
2023-02-13T20:26:24.932Z,36.40
2023-02-13T20:28:51.946Z,37.95
2023-02-13T20:31:21.507Z,44.58
2023-02-13T20:33:50.259Z,46.47
2023-02-13T20:36:19.844Z,44.05
2023-02-13T20:38:46.836Z,42.78
2023-02-13T20:41:13.824Z,37.67
2023-02-13T20:43:41.491Z,40.70
2023-02-13T20:46:09.082Z,51.08
2023-02-13T20:48:37.165Z,51.53
2023-02-13T20:51:06.440Z,46.90
2023-02-13T20:53:33.855Z,45.25
2023-02-13T20:56:06.684Z,41.95
2023-02-13T20:58:34.460Z,43.75
2023-02-13T21:01:01.921Z,48.53
2023-02-13T21:03:29.492Z,46.92
2023-02-13T21:05:56.440Z,45.70
2023-02-13T21:08:23.351Z,51.83
2023-02-13T21:10:50.298Z,41.05
2023-02-13T21:13:17.466Z,49.25
2023-02-13T21:15:48.300Z,49.65
2023-02-13T21:18:15.634Z,53.78
2023-02-13T21:20:42.571Z,49.05
2023-02-13T21:23:09.625Z,61.85
2023-02-13T21:25:36.571Z,49.28
2023-02-13T21:28:03.582Z,49.60
2023-02-13T21:30:30.643Z,46.60
2023-02-13T21:32:57.615Z,51.28
2023-02-13T21:35:24.520Z,56.92
2023-02-13T21:37:51.469Z,53.25
2023-02-13T21:40:19.970Z,56.80
2023-02-13T21:42:46.929Z,50.60
2023-02-13T21:45:13.876Z,52.47
2023-02-13T21:47:40.775Z,51.42
2023-02-13T21:50:08.102Z,52.42
2023-02-13T21:52:35.584Z,50.45
2023-02-13T21:55:03.237Z,46.03
2023-02-13T21:57:30.110Z,40.75
2023-02-13T21:59:57.433Z,49.10
2023-02-13T22:02:27.113Z,54.17
2023-02-13T22:04:54.133Z,45.65
2023-02-13T22:07:21.049Z,43.63
2023-02-13T22:09:50.050Z,40.85
2023-02-13T22:12:16.902Z,37.38
2023-02-13T22:14:43.850Z,36.88
2023-02-13T22:17:10.905Z,48.13
2023-02-13T22:19:38.022Z,44.72
2023-02-13T22:22:04.902Z,42.17
2023-02-13T22:24:32.813Z,30.88
2023-02-13T22:26:59.770Z,49.67
2023-02-13T22:29:27.245Z,39.45
2023-02-13T22:31:54.169Z,41.00
2023-02-13T22:34:21.209Z,44.22
2023-02-13T22:36:48.147Z,41.17
2023-02-13T22:39:15.113Z,34.00
2023-02-13T22:41:44.536Z,39.47
2023-02-13T22:44:11.566Z,38.22
2023-02-13T22:46:38.713Z,41.25
2023-02-13T22:49:05.604Z,36.70
2023-02-13T22:51:35.422Z,40.47
2023-02-13T22:54:03.133Z,31.42
2023-02-13T22:56:31.149Z,34.33
2023-02-13T22:58:59.577Z,35.05
2023-02-13T23:01:28.067Z,29.65
2023-02-13T23:03:55.818Z,32.65
2023-02-13T23:06:23.899Z,33.70
2023-02-13T23:08:53.486Z,35.13
2023-02-13T23:11:41.947Z,32.38
2023-02-13T23:14:10.381Z,27.70
2023-02-13T23:17:00.259Z,34.78
2023-02-13T23:19:29.851Z,42.83
2023-02-13T23:21:57.294Z,36.63
2023-02-13T23:24:24.321Z,39.08
2023-02-13T23:26:51.215Z,31.23
2023-02-13T23:29:18.341Z,24.20
2023-02-13T23:31:45.337Z,31.42
2023-02-13T23:34:12.457Z,34.92
2023-02-13T23:36:39.328Z,26.50
2023-02-13T23:39:06.334Z,35.40
2023-02-13T23:41:33.330Z,29.90
2023-02-13T23:44:00.198Z,26.48
2023-02-13T23:46:27.549Z,35.08
2023-02-13T23:48:54.517Z,36.33
2023-02-13T23:51:23.201Z,35.72
2023-02-13T23:53:50.131Z,38.25
2023-02-13T23:56:17.057Z,31.05
2023-02-13T23:58:43.948Z,29.05
